createdAt,value
2023-04-30T00:00:08.969Z,97908.72
2023-04-30T00:02:37.609Z,97900.34
2023-04-30T00:05:05.290Z,97906.56
2023-04-30T00:07:32.600Z,97913.66
2023-04-30T00:09:59.848Z,97904.56
2023-04-30T00:12:27.881Z,97906.84
2023-04-30T00:14:56.640Z,97902.16
2023-04-30T00:17:24.179Z,97902.88
2023-04-30T00:19:51.521Z,97900.28
2023-04-30T00:22:18.645Z,97907.97
2023-04-30T00:24:45.897Z,97911.06
2023-04-30T00:27:13.058Z,97915.78
2023-04-30T00:29:40.410Z,97906.25
2023-04-30T00:32:07.558Z,97907.84
2023-04-30T00:34:34.663Z,97898.34
2023-04-30T00:37:01.790Z,97898.19
2023-04-30T00:39:28.911Z,97900.63
2023-04-30T00:41:56.050Z,97902.75
2023-04-30T00:44:23.321Z,97891.81
2023-04-30T00:46:50.684Z,97895.78
2023-04-30T00:49:18.037Z,97890.66
2023-04-30T00:51:46.237Z,97887.41
2023-04-30T00:54:13.471Z,97879.31
2023-04-30T00:56:41.199Z,97875.34
2023-04-30T00:59:08.884Z,97881.56
2023-04-30T01:01:36.154Z,97873.06
2023-04-30T01:04:03.695Z,97864.22
2023-04-30T01:06:31.928Z,97880.97
2023-04-30T01:08:59.135Z,97883.66
2023-04-30T01:11:45.813Z,97869.22
2023-04-30T01:14:30.664Z,97882.25
2023-04-30T01:17:24.060Z,97878.72
2023-04-30T01:19:51.257Z,97873.59
2023-04-30T01:22:24.296Z,97877.00
2023-04-30T01:25:07.895Z,97873.59
2023-04-30T01:28:03.126Z,97873.41
2023-04-30T01:30:32.268Z,97863.91
2023-04-30T01:32:59.930Z,97871.00
2023-04-30T01:35:36.220Z,97861.94
2023-04-30T01:38:34.571Z,97861.09
2023-04-30T01:41:04.467Z,97859.34
2023-04-30T01:43:54.277Z,97865.50
2023-04-30T01:46:30.781Z,97867.22
2023-04-30T01:49:20.222Z,97867.50
2023-04-30T01:51:52.499Z,97863.47
2023-04-30T01:54:56.304Z,97856.22
2023-04-30T01:57:32.558Z,97864.00
2023-04-30T01:59:59.970Z,97854.50
2023-04-30T02:02:27.360Z,97863.03
2023-04-30T02:04:54.602Z,97867.66
2023-04-30T02:07:38.547Z,97857.78
2023-04-30T02:10:07.791Z,97863.53
2023-04-30T02:12:35.666Z,97878.16
2023-04-30T02:15:03.912Z,97866.69
2023-04-30T02:17:32.313Z,97872.31
2023-04-30T02:20:00.299Z,97861.81
2023-04-30T02:22:27.944Z,97875.00
2023-04-30T02:24:56.135Z,97872.66
2023-04-30T02:27:25.543Z,97876.38
2023-04-30T02:29:54.176Z,97881.94
2023-04-30T02:32:22.053Z,97878.72
2023-04-30T02:34:49.414Z,97870.69
2023-04-30T02:37:16.638Z,97849.94
2023-04-30T02:39:43.917Z,97868.22
2023-04-30T02:42:11.687Z,97870.75
2023-04-30T02:44:38.794Z,97886.00
2023-04-30T02:47:06.060Z,97881.09
2023-04-30T02:49:33.269Z,97880.94
2023-04-30T02:52:00.454Z,97880.94
2023-04-30T02:54:27.847Z,97879.69
2023-04-30T02:56:54.953Z,97877.81
2023-04-30T02:59:22.826Z,97876.53
2023-04-30T03:01:50.296Z,97871.75
2023-04-30T03:04:17.463Z,97881.91
2023-04-30T03:06:44.707Z,97889.03
2023-04-30T03:09:11.910Z,97884.94
2023-04-30T03:11:39.255Z,97881.91
2023-04-30T03:14:06.313Z,97890.16
2023-04-30T03:16:33.566Z,97885.50
2023-04-30T03:19:00.627Z,97897.13
2023-04-30T03:21:27.780Z,97903.19
2023-04-30T03:23:54.878Z,97903.16
2023-04-30T03:26:22.442Z,97913.19
2023-04-30T03:28:49.893Z,97914.41
2023-04-30T03:31:17.321Z,97917.91
2023-04-30T03:33:44.437Z,97913.38
2023-04-30T03:36:12.121Z,97917.66
2023-04-30T03:38:39.274Z,97923.63
2023-04-30T03:41:06.588Z,97911.72
2023-04-30T03:43:33.884Z,97929.16
2023-04-30T03:46:01.171Z,97933.84
2023-04-30T03:48:36.558Z,97930.88
2023-04-30T03:51:07.469Z,97923.53
2023-04-30T03:53:34.580Z,97931.69
2023-04-30T03:56:02.407Z,97935.09
2023-04-30T03:58:30.098Z,97927.13
2023-04-30T04:00:57.216Z,97931.47
2023-04-30T04:03:24.599Z,97933.63
2023-04-30T04:05:51.812Z,97948.19
2023-04-30T04:08:19.234Z,97946.34
2023-04-30T04:10:46.441Z,97952.63
2023-04-30T04:13:13.698Z,97938.63
2023-04-30T04:15:41.128Z,97953.59
2023-04-30T04:18:09.052Z,97951.81
2023-04-30T04:20:36.226Z,97954.84
2023-04-30T04:23:03.602Z,97958.91
2023-04-30T04:25:30.770Z,97962.09
2023-04-30T04:27:57.894Z,97960.94
2023-04-30T04:30:25.028Z,97966.97
2023-04-30T04:32:54.246Z,97967.56
2023-04-30T04:35:21.890Z,97966.69
2023-04-30T04:37:49.024Z,97970.69
2023-04-30T04:40:16.516Z,97964.66
2023-04-30T04:42:43.871Z,97973.66
2023-04-30T04:45:12.803Z,97965.38
2023-04-30T04:47:40.033Z,97973.09
2023-04-30T04:50:08.221Z,97969.50
2023-04-30T04:52:35.482Z,97970.31
2023-04-30T04:55:02.579Z,97979.25
2023-04-30T04:57:29.788Z,97974.31
2023-04-30T04:59:57.395Z,97965.28
2023-04-30T05:02:25.294Z,97963.22
2023-04-30T05:04:55.526Z,97974.19
2023-04-30T05:07:23.448Z,97965.22
2023-04-30T05:09:50.568Z,97983.84
2023-04-30T05:12:17.695Z,97985.53
2023-04-30T05:14:45.362Z,97995.28
2023-04-30T05:17:12.452Z,97980.72
2023-04-30T05:19:39.663Z,97985.09
2023-04-30T05:22:06.721Z,97984.56
2023-04-30T05:24:34.480Z,97975.38
2023-04-30T05:27:03.303Z,97978.38
2023-04-30T05:29:30.439Z,97978.66
2023-04-30T05:31:57.780Z,97966.16
2023-04-30T05:34:24.966Z,97979.53
2023-04-30T05:36:52.130Z,97968.44
2023-04-30T05:39:19.224Z,97955.50
2023-04-30T05:41:46.344Z,97981.41
2023-04-30T05:44:13.692Z,97970.69
2023-04-30T05:46:40.888Z,97976.44
2023-04-30T05:49:08.273Z,97978.78
2023-04-30T05:51:35.641Z,97991.19
2023-04-30T05:54:02.785Z,97986.00
2023-04-30T05:56:29.956Z,97983.56
2023-04-30T05:58:57.111Z,97982.81
2023-04-30T06:01:25.640Z,97984.06
2023-04-30T06:03:53.279Z,97977.91
2023-04-30T06:06:20.560Z,97992.84
2023-04-30T06:08:47.786Z,97973.19
2023-04-30T06:11:15.625Z,97998.44
2023-04-30T06:13:42.900Z,97996.06
2023-04-30T06:16:10.259Z,97988.66
2023-04-30T06:18:37.425Z,97985.81
2023-04-30T06:21:04.648Z,97987.50
2023-04-30T06:23:31.811Z,97955.72
2023-04-30T06:25:58.986Z,97975.72
2023-04-30T06:28:26.166Z,97982.75
2023-04-30T06:30:54.814Z,97975.97
2023-04-30T06:33:22.422Z,97951.16
2023-04-30T06:35:51.345Z,97963.19
2023-04-30T06:38:18.599Z,97979.84
2023-04-30T06:40:45.760Z,97970.56
2023-04-30T06:43:12.895Z,97973.47
2023-04-30T06:45:40.720Z,97976.91
2023-04-30T06:48:08.028Z,97981.91
2023-04-30T06:50:35.187Z,97987.53
2023-04-30T06:53:02.861Z,97977.69
2023-04-30T06:55:30.165Z,97976.69
2023-04-30T06:57:58.304Z,97979.44
2023-04-30T07:00:25.595Z,97977.69
2023-04-30T07:02:52.888Z,97983.19
2023-04-30T07:05:20.208Z,97973.16
2023-04-30T07:07:47.362Z,97974.66
2023-04-30T07:10:14.752Z,97977.38
2023-04-30T07:12:41.904Z,97981.09
2023-04-30T07:15:09.360Z,97985.34
2023-04-30T07:17:37.420Z,97972.41
2023-04-30T07:20:05.637Z,97980.34
2023-04-30T07:22:32.713Z,97984.69
2023-04-30T07:25:00.891Z,97995.16
2023-04-30T07:27:28.690Z,97976.19
2023-04-30T07:29:56.727Z,97999.16
2023-04-30T07:32:27.670Z,97986.94
2023-04-30T07:34:54.819Z,97998.00
2023-04-30T07:37:22.274Z,97992.19
2023-04-30T07:39:49.414Z,97998.03
2023-04-30T07:42:16.578Z,98001.47
2023-04-30T07:44:44.120Z,97996.81
2023-04-30T07:47:11.239Z,98003.03
2023-04-30T07:49:38.470Z,97996.84
2023-04-30T07:52:06.352Z,98008.44
2023-04-30T07:54:36.735Z,98002.28
2023-04-30T07:57:04.098Z,98001.59
2023-04-30T07:59:31.967Z,98002.16
2023-04-30T08:01:59.546Z,97991.56
2023-04-30T08:04:27.123Z,97978.63
2023-04-30T08:06:54.267Z,97982.47
2023-04-30T08:09:21.455Z,97990.44
2023-04-30T08:11:48.570Z,97993.03
2023-04-30T08:14:15.838Z,97990.84
2023-04-30T08:16:43.012Z,97999.56
2023-04-30T08:19:10.173Z,97997.00
2023-04-30T08:21:37.433Z,97992.00
2023-04-30T08:24:04.677Z,97979.53
2023-04-30T08:26:32.012Z,97986.53
2023-04-30T08:28:59.274Z,97988.94
2023-04-30T08:31:26.689Z,97985.19
2023-04-30T08:33:53.843Z,97989.13
2023-04-30T08:36:21.272Z,97979.84
2023-04-30T08:38:48.559Z,97970.81
2023-04-30T08:41:20.168Z,97971.41
2023-04-30T08:43:53.999Z,97974.53
2023-04-30T08:46:23.583Z,97966.47
2023-04-30T08:48:51.140Z,97970.44
2023-04-30T08:51:18.655Z,97965.81
2023-04-30T08:53:46.901Z,97968.47
2023-04-30T08:56:14.099Z,97964.13
2023-04-30T08:58:41.583Z,97971.53
2023-04-30T09:01:10.577Z,97965.59
2023-04-30T09:03:38.280Z,97964.97
2023-04-30T09:06:05.609Z,97967.84
2023-04-30T09:08:47.322Z,97971.19
2023-04-30T09:11:43.813Z,97964.97
2023-04-30T09:14:11.007Z,97975.00
2023-04-30T09:16:50.231Z,97969.72
2023-04-30T09:19:31.258Z,97951.72
2023-04-30T09:21:58.775Z,97963.50
2023-04-30T09:24:26.188Z,97962.69
2023-04-30T09:26:54.267Z,97956.28
2023-04-30T09:29:21.618Z,97964.19
2023-04-30T09:31:48.961Z,97945.19
2023-04-30T09:34:17.845Z,97962.53
2023-04-30T09:37:08.693Z,97953.47
2023-04-30T09:39:54.498Z,97927.75
2023-04-30T09:42:22.923Z,97945.06
2023-04-30T09:44:50.369Z,97942.94
2023-04-30T09:47:19.903Z,97934.72
2023-04-30T09:49:54.443Z,97930.06
2023-04-30T09:52:22.171Z,97922.63
2023-04-30T09:54:49.839Z,97931.66
2023-04-30T09:57:20.216Z,97929.38
2023-04-30T09:59:49.138Z,97918.59
2023-04-30T10:02:17.545Z,97916.28
2023-04-30T10:04:49.534Z,97912.00
2023-04-30T10:07:22.240Z,97911.47
2023-04-30T10:09:59.853Z,97901.78
2023-04-30T10:12:35.121Z,97887.44
2023-04-30T10:15:23.403Z,97893.59
2023-04-30T10:17:58.213Z,97898.00
2023-04-30T10:20:27.138Z,97884.75
2023-04-30T10:22:55.032Z,97885.78
2023-04-30T10:25:23.814Z,97877.19
2023-04-30T10:27:52.148Z,97883.50
2023-04-30T10:30:19.265Z,97874.78
2023-04-30T10:33:07.221Z,97873.81
2023-04-30T10:35:47.326Z,97880.06
2023-04-30T10:38:27.056Z,97884.22
2023-04-30T10:40:58.651Z,97885.72
2023-04-30T10:43:26.731Z,97872.47
2023-04-30T10:45:54.215Z,97878.31
2023-04-30T10:48:27.520Z,97872.59
2023-04-30T10:50:59.126Z,97877.53
2023-04-30T10:53:28.949Z,97886.09
2023-04-30T10:56:09.787Z,97886.81
2023-04-30T10:58:39.668Z,97891.00
2023-04-30T11:01:15.155Z,97890.38
2023-04-30T11:03:44.265Z,97883.13
2023-04-30T11:06:15.785Z,97913.03
2023-04-30T11:08:46.503Z,97901.09
2023-04-30T11:11:24.145Z,97904.75
2023-04-30T11:14:01.916Z,97912.88
2023-04-30T11:16:31.696Z,97907.53
2023-04-30T11:19:13.737Z,97913.34
2023-04-30T11:22:06.337Z,97923.97
2023-04-30T11:24:53.042Z,97919.38
2023-04-30T11:27:24.779Z,97924.66
2023-04-30T11:29:53.666Z,97912.59
2023-04-30T11:32:22.919Z,97932.53
2023-04-30T11:34:50.427Z,97927.16
2023-04-30T11:37:35.597Z,97919.06
2023-04-30T11:40:08.242Z,97930.72
2023-04-30T11:42:35.846Z,97934.06
2023-04-30T11:45:05.198Z,97924.94
2023-04-30T11:47:44.077Z,97927.94
2023-04-30T11:50:13.515Z,97915.56
2023-04-30T11:52:42.061Z,97916.78
2023-04-30T11:55:23.676Z,97917.47
2023-04-30T11:57:53.642Z,97910.88
2023-04-30T12:00:22.928Z,97917.84
2023-04-30T12:02:50.833Z,97901.88
2023-04-30T12:05:23.956Z,97916.00
2023-04-30T12:08:00.181Z,97901.41
2023-04-30T12:10:27.642Z,97905.22
2023-04-30T12:12:55.577Z,97910.16
2023-04-30T12:15:27.228Z,97912.31
2023-04-30T12:17:56.694Z,97915.19
2023-04-30T12:20:29.628Z,97901.44
2023-04-30T12:22:58.502Z,97903.06
2023-04-30T12:25:29.298Z,97901.44
2023-04-30T12:27:59.839Z,97893.28
2023-04-30T12:30:27.278Z,97895.31
2023-04-30T12:32:58.256Z,97890.47
2023-04-30T12:35:29.048Z,97888.31
2023-04-30T12:38:04.840Z,97875.75
2023-04-30T12:40:32.572Z,97871.19
2023-04-30T12:43:09.384Z,97874.16
2023-04-30T12:45:47.055Z,97861.91
2023-04-30T12:48:15.936Z,97854.59
2023-04-30T12:50:47.610Z,97846.38
2023-04-30T12:53:15.564Z,97847.81
2023-04-30T12:55:42.725Z,97836.00
2023-04-30T12:58:17.076Z,97840.75
2023-04-30T13:00:44.202Z,97838.34
2023-04-30T13:03:13.071Z,97841.75
2023-04-30T13:05:42.365Z,97827.00
2023-04-30T13:08:10.101Z,97824.47
2023-04-30T13:10:37.222Z,97823.16
2023-04-30T13:13:04.396Z,97824.13
2023-04-30T13:15:31.858Z,97813.50
2023-04-30T13:17:59.104Z,97804.84
2023-04-30T13:20:26.827Z,97798.28
2023-04-30T13:22:54.347Z,97802.28
2023-04-30T13:25:22.503Z,97788.91
2023-04-30T13:27:49.676Z,97793.06
2023-04-30T13:30:16.927Z,97791.44
2023-04-30T13:32:45.191Z,97781.72
2023-04-30T13:35:12.553Z,97783.75
2023-04-30T13:37:39.695Z,97784.28
2023-04-30T13:40:09.952Z,97785.19
2023-04-30T13:42:39.484Z,97782.94
2023-04-30T13:45:07.736Z,97778.94
2023-04-30T13:47:35.680Z,97771.88
2023-04-30T13:50:04.100Z,97759.31
2023-04-30T13:52:31.531Z,97762.84
2023-04-30T13:54:58.766Z,97749.78
2023-04-30T13:57:26.345Z,97750.69
2023-04-30T13:59:54.891Z,97765.28
2023-04-30T14:02:22.296Z,97762.25
2023-04-30T14:05:02.077Z,97750.19
2023-04-30T14:07:32.870Z,97756.19
2023-04-30T14:10:00.325Z,97759.44
2023-04-30T14:12:27.877Z,97746.75
2023-04-30T14:14:55.063Z,97742.84
2023-04-30T14:17:22.321Z,97750.00
2023-04-30T14:19:49.498Z,97746.47
2023-04-30T14:22:17.324Z,97742.72
2023-04-30T14:24:47.485Z,97751.91
2023-04-30T14:27:14.627Z,97740.72
2023-04-30T14:29:41.748Z,97739.03
2023-04-30T14:32:09.088Z,97738.31
2023-04-30T14:34:36.292Z,97737.56
2023-04-30T14:37:04.204Z,97744.25
2023-04-30T14:39:31.992Z,97736.59
2023-04-30T14:42:39.583Z,97740.09
2023-04-30T14:45:10.738Z,97694.78
2023-04-30T14:47:48.720Z,97747.81
2023-04-30T14:50:19.137Z,97704.81
2023-04-30T14:52:47.532Z,97726.09
2023-04-30T14:55:14.822Z,97722.53
2023-04-30T14:57:41.909Z,97734.72
2023-04-30T15:00:10.289Z,97736.50
2023-04-30T15:02:37.475Z,97717.84
2023-04-30T15:05:05.622Z,97739.09
2023-04-30T15:07:32.824Z,97738.53
2023-04-30T15:10:00.067Z,97728.50
2023-04-30T15:12:27.242Z,97734.47
2023-04-30T15:14:54.410Z,97732.34
2023-04-30T15:17:22.084Z,97712.78
2023-04-30T15:19:49.473Z,97713.09
2023-04-30T15:22:17.343Z,97728.47
2023-04-30T15:24:44.673Z,97737.00
2023-04-30T15:27:12.118Z,97711.25
2023-04-30T15:29:40.800Z,97732.69
2023-04-30T15:32:07.912Z,97734.69
2023-04-30T15:34:35.167Z,97731.09
2023-04-30T15:37:02.525Z,97730.34
2023-04-30T15:39:29.721Z,97735.81
2023-04-30T15:41:57.634Z,97725.03
2023-04-30T15:44:26.464Z,97730.03
2023-04-30T15:46:53.864Z,97712.44
2023-04-30T15:49:24.682Z,97725.19
2023-04-30T15:51:51.930Z,97716.00
2023-04-30T15:54:19.632Z,97727.81
2023-04-30T15:56:47.978Z,97714.41
2023-04-30T15:59:18.438Z,97712.69
2023-04-30T16:01:46.935Z,97699.16
2023-04-30T16:04:14.161Z,97719.72
2023-04-30T16:06:41.419Z,97716.94
2023-04-30T16:09:09.263Z,97719.44
2023-04-30T16:11:36.853Z,97695.75
2023-04-30T16:14:04.040Z,97706.16
2023-04-30T16:16:31.321Z,97717.75
2023-04-30T16:18:59.337Z,97725.53
2023-04-30T16:21:28.293Z,97715.19
2023-04-30T16:23:57.330Z,97707.09
2023-04-30T16:26:26.102Z,97716.66
2023-04-30T16:28:57.343Z,97716.72
2023-04-30T16:31:25.389Z,97733.50
2023-04-30T16:33:53.768Z,97737.81
2023-04-30T16:36:22.036Z,97737.59
2023-04-30T16:38:49.299Z,97743.88
2023-04-30T16:41:17.777Z,97743.94
2023-04-30T16:43:46.108Z,97732.00
2023-04-30T16:46:13.372Z,97752.06
2023-04-30T16:48:40.580Z,97755.53
2023-04-30T16:51:09.254Z,97752.66
2023-04-30T16:53:36.479Z,97749.16
2023-04-30T16:58:30.914Z,97769.81
2023-04-30T17:00:58.139Z,97759.28
2023-04-30T17:03:25.627Z,97772.88
2023-04-30T17:05:53.529Z,97763.66
2023-04-30T17:08:21.436Z,97767.00
2023-04-30T17:10:48.576Z,97775.78
2023-04-30T17:13:15.689Z,97779.00
2023-04-30T17:15:43.752Z,97781.31
2023-04-30T17:18:12.179Z,97774.47
2023-04-30T17:20:39.623Z,97775.28
2023-04-30T17:23:06.930Z,97790.16
2023-04-30T17:25:34.184Z,97788.06
2023-04-30T17:28:01.760Z,97790.44
2023-04-30T17:30:31.680Z,97795.56
2023-04-30T17:33:00.634Z,97799.75
2023-04-30T17:35:27.843Z,97791.53
2023-04-30T17:37:55.133Z,97803.16
2023-04-30T17:40:22.233Z,97813.59
2023-04-30T17:42:51.807Z,97806.38
2023-04-30T17:45:19.389Z,97806.56
2023-04-30T17:47:46.820Z,97806.94
2023-04-30T17:50:13.975Z,97816.88
2023-04-30T17:52:41.590Z,97800.34
2023-04-30T17:55:09.653Z,97818.22
2023-04-30T17:57:37.285Z,97824.22
2023-04-30T18:00:05.751Z,97827.13
2023-04-30T18:02:40.441Z,97836.94
2023-04-30T18:05:08.094Z,97840.47
2023-04-30T18:07:35.226Z,97835.06
2023-04-30T18:10:02.333Z,97827.81
2023-04-30T18:12:29.824Z,97839.84
2023-04-30T18:14:56.903Z,97830.13
2023-04-30T18:17:24.204Z,97845.81
2023-04-30T18:19:51.554Z,97854.38
2023-04-30T18:22:19.512Z,97879.06
2023-04-30T18:24:47.711Z,97884.25
2023-04-30T18:27:17.406Z,97888.56
2023-04-30T18:29:46.757Z,97881.00
2023-04-30T18:32:14.397Z,97894.16
2023-04-30T18:34:42.673Z,97876.25
2023-04-30T18:37:10.244Z,97904.81
2023-04-30T18:39:37.564Z,97900.41
2023-04-30T18:42:04.704Z,97910.94
2023-04-30T18:44:32.418Z,97918.81
2023-04-30T18:46:59.574Z,97920.19
2023-04-30T18:49:27.034Z,97929.66
2023-04-30T18:51:55.599Z,97909.59
2023-04-30T18:54:23.146Z,97931.13
2023-04-30T18:56:50.353Z,97932.00
2023-04-30T18:59:17.621Z,97919.78
2023-04-30T19:01:44.863Z,97930.00
2023-04-30T19:04:16.063Z,97945.72
2023-04-30T19:06:44.818Z,97936.53
2023-04-30T19:09:13.689Z,97937.25
2023-04-30T19:11:41.518Z,97940.16
2023-04-30T19:14:08.693Z,97942.34
2023-04-30T19:16:36.000Z,97946.16
2023-04-30T19:19:04.262Z,97964.34
2023-04-30T19:21:32.862Z,97975.19
2023-04-30T19:24:00.839Z,97966.38
2023-04-30T19:26:28.302Z,97978.47
2023-04-30T19:28:56.565Z,97979.06
2023-04-30T19:31:24.222Z,97989.06
2023-04-30T19:33:51.339Z,97985.91
2023-04-30T19:36:18.822Z,97984.91
2023-04-30T19:38:46.007Z,97993.09
2023-04-30T19:41:13.401Z,97993.50
2023-04-30T19:43:40.594Z,97992.19
2023-04-30T19:46:08.103Z,97987.81
2023-04-30T19:48:35.497Z,97989.66
2023-04-30T19:51:06.298Z,97988.91
2023-04-30T19:53:33.845Z,97984.34
2023-04-30T19:56:01.083Z,97981.63
2023-04-30T19:58:28.298Z,97988.44
2023-04-30T20:00:56.182Z,97996.25
2023-04-30T20:03:25.483Z,97986.22
2023-04-30T20:05:52.874Z,98000.31
2023-04-30T20:08:20.104Z,97992.84
2023-04-30T20:10:50.497Z,98003.56
2023-04-30T20:13:18.141Z,98001.34
2023-04-30T20:15:45.381Z,98002.72
2023-04-30T20:18:12.937Z,97997.25
2023-04-30T20:20:40.124Z,98013.00
2023-04-30T20:23:14.678Z,98011.16
2023-04-30T20:25:46.385Z,98005.38
2023-04-30T20:28:15.007Z,98005.50
2023-04-30T20:30:43.376Z,98009.41
2023-04-30T20:33:14.354Z,97999.72
2023-04-30T20:35:44.314Z,98025.16
2023-04-30T20:38:12.419Z,98028.03
2023-04-30T20:40:42.625Z,98033.97
2023-04-30T20:43:11.341Z,98027.50
2023-04-30T20:45:38.843Z,98035.69
2023-04-30T20:48:07.900Z,98030.94
2023-04-30T20:50:35.444Z,98030.06
2023-04-30T20:53:02.743Z,98026.81
2023-04-30T20:55:29.956Z,98024.47
2023-04-30T20:57:57.233Z,98030.25
2023-04-30T21:00:24.913Z,98028.75
2023-04-30T21:02:54.237Z,98014.66
2023-04-30T21:05:21.663Z,98038.72
2023-04-30T21:07:48.718Z,98035.66
2023-04-30T21:10:16.489Z,98043.75
2023-04-30T21:12:43.828Z,98039.09
2023-04-30T21:15:12.319Z,98024.72
2023-04-30T21:17:39.850Z,98044.59
2023-04-30T21:20:07.752Z,98047.84
2023-04-30T21:22:35.205Z,98040.22
2023-04-30T21:25:02.372Z,98059.88
2023-04-30T21:27:29.500Z,98054.25
2023-04-30T21:29:56.982Z,98065.09
2023-04-30T21:32:24.528Z,98066.56
2023-04-30T21:34:51.614Z,98069.69
2023-04-30T21:37:20.981Z,98071.47
2023-04-30T21:39:48.586Z,98069.75
2023-04-30T21:42:15.697Z,98065.00
2023-04-30T21:44:44.849Z,98066.97
2023-04-30T21:47:12.014Z,98072.66
2023-04-30T21:49:39.246Z,98080.91
2023-04-30T21:52:08.605Z,98073.16
2023-04-30T21:54:35.783Z,98079.19
2023-04-30T21:57:02.978Z,98072.06
2023-04-30T21:59:30.170Z,98061.28
2023-04-30T22:01:57.900Z,98080.66
2023-04-30T22:04:25.844Z,98075.41
2023-04-30T22:06:53.961Z,98085.00
2023-04-30T22:09:21.867Z,98067.78
2023-04-30T22:11:49.972Z,98088.38
2023-04-30T22:14:19.803Z,98079.91
2023-04-30T22:16:47.113Z,98081.16
2023-04-30T22:19:14.435Z,98085.88
2023-04-30T22:21:41.675Z,98086.75
2023-04-30T22:24:09.746Z,98090.97
2023-04-30T22:26:37.061Z,98085.72
2023-04-30T22:29:04.232Z,98068.41
2023-04-30T22:31:31.641Z,98081.69
2023-04-30T22:33:59.885Z,98081.16
2023-04-30T22:36:27.568Z,98076.75
2023-04-30T22:38:54.735Z,98077.91
2023-04-30T22:41:22.627Z,98081.25
2023-04-30T22:43:49.744Z,98083.81
2023-04-30T22:46:16.907Z,98085.53
2023-04-30T22:48:44.744Z,98092.25
2023-04-30T22:51:11.907Z,98086.56
2023-04-30T22:53:39.199Z,98094.19
2023-04-30T22:56:06.813Z,98100.69
2023-04-30T22:58:33.897Z,98087.56
2023-04-30T23:01:01.416Z,98091.25
2023-04-30T23:03:28.557Z,98088.31
2023-04-30T23:05:55.748Z,98080.19
2023-04-30T23:08:23.050Z,98089.41
2023-04-30T23:10:50.180Z,98098.47
2023-04-30T23:13:18.672Z,98100.06
2023-04-30T23:15:45.839Z,98107.50
2023-04-30T23:18:13.214Z,98103.88
2023-04-30T23:20:40.581Z,98100.31
2023-04-30T23:23:07.714Z,98089.25
2023-04-30T23:25:35.039Z,98096.09
2023-04-30T23:28:02.160Z,98089.50
2023-04-30T23:30:29.324Z,98088.72
2023-04-30T23:32:56.875Z,98088.72
2023-04-30T23:35:23.976Z,98095.00
2023-04-30T23:37:51.786Z,98088.72
2023-04-30T23:40:20.068Z,98094.00
2023-04-30T23:42:47.167Z,98093.28
2023-04-30T23:45:14.352Z,98091.44
2023-04-30T23:47:41.476Z,98091.03
2023-04-30T23:50:09.219Z,98093.19
2023-04-30T23:52:37.097Z,98090.28
2023-04-30T23:55:04.482Z,98080.44
2023-04-30T23:57:31.827Z,98081.06
2023-04-30T23:59:59.502Z,98093.31
